Time;durP1;ratioP1;P1;durP2;ratioP2;P2;SDS_P1;SDS_P2;PMS_P1;PMS_P2;Temp;Humidity;BMP_temperature;BMP_pressure;BME280_temperature;BME280_humidity;BME280_pressure;Samples;Min_cycle;Max_cycle;Signal;HPM_P1;HPM_P2
2023/01/21 00:00:28;;;;;;;29.05;13.63;;;2.60;99.90;;;;;;5025303;28;20029;-71
2023/01/21 00:02:54;;;;;;;25.42;12.90;;;2.70;99.90;;;;;;5026308;28;20033;-72
2023/01/21 00:05:20;;;;;;;24.38;11.95;;;2.70;99.90;;;;;;5042077;28;20045;-72
2023/01/21 00:07:45;;;;;;;24.17;12.60;;;2.70;99.90;;;;;;5024222;28;20061;-72
2023/01/21 00:10:11;;;;;;;24.95;11.50;;;2.70;99.90;;;;;;5025371;28;20460;-72
2023/01/21 00:12:37;;;;;;;27.52;12.75;;;2.70;99.90;;;;;;5025164;28;20029;-72
2023/01/21 00:15:03;;;;;;;24.05;12.23;;;2.70;99.90;;;;;;5047140;28;20482;-73
2023/01/21 00:17:34;;;;;;;1999.90;998.17;;;2.60;99.90;;;;;;5031494;28;20033;-73
2023/01/21 00:20:00;;;;;;;1507.53;686.40;;;2.80;99.90;;;;;;5032335;28;20554;-73
2023/01/21 00:22:26;;;;;;;1051.63;493.17;;;2.70;99.90;;;;;;5028992;28;20037;-72
2023/01/21 00:24:52;;;;;;;174.93;90.82;;;2.70;99.90;;;;;;5043647;28;20753;-72
2023/01/21 00:27:17;;;;;;;197.05;117.57;;;2.60;99.90;;;;;;5044077;28;20105;-72
2023/01/21 00:29:43;;;;;;;31.95;16.67;;;2.60;99.90;;;;;;5029088;28;20037;-71
2023/01/21 00:32:09;;;;;;;26.95;14.15;;;2.70;99.90;;;;;;5030055;28;20433;-73
2023/01/21 00:34:34;;;;;;;29.85;14.93;;;2.60;99.90;;;;;;5027316;28;20029;-72
2023/01/21 00:37:00;;;;;;;30.38;15.23;;;2.50;99.90;;;;;;5029389;28;20108;-72
2023/01/21 00:39:26;;;;;;;27.85;14.40;;;2.40;99.90;;;;;;5030131;28;20036;-72
2023/01/21 00:41:52;;;;;;;28.90;14.38;;;2.30;99.90;;;;;;5043573;28;20044;-72
2023/01/21 00:44:18;;;;;;;33.28;15.55;;;2.30;99.90;;;;;;5026131;28;20037;-71
2023/01/21 00:46:44;;;;;;;32.63;15.52;;;2.20;99.90;;;;;;5061312;28;20032;-72
2023/01/21 00:49:10;;;;;;;35.38;15.68;;;2.20;99.90;;;;;;5030197;28;20037;-72
2023/01/21 00:51:36;;;;;;;33.53;15.65;;;2.20;99.90;;;;;;5029686;28;20028;-72
2023/01/21 00:54:02;;;;;;;29.73;14.40;;;2.20;99.90;;;;;;5023212;28;20115;-72
2023/01/21 00:56:28;;;;;;;32.33;15.85;;;2.30;99.90;;;;;;5030357;28;20049;-72
2023/01/21 00:58:53;;;;;;;31.42;14.98;;;2.20;99.90;;;;;;5028742;28;20026;-73
2023/01/21 01:01:21;;;;;;;34.50;15.57;;;2.20;99.90;;;;;;5024590;28;20045;-72
2023/01/21 01:03:48;;;;;;;33.28;15.23;;;2.10;99.90;;;;;;5041591;28;20833;-71
2023/01/21 01:06:16;;;;;;;36.88;14.95;;;2.10;99.90;;;;;;5027004;28;20065;-72
2023/01/21 01:08:44;;;;;;;38.03;17.58;;;2.10;99.90;;;;;;5044226;28;20505;-72
2023/01/21 01:11:11;;;;;;;36.10;16.63;;;2.00;99.90;;;;;;5042697;28;20086;-71
2023/01/21 01:13:38;;;;;;;34.70;15.45;;;2.10;99.90;;;;;;5044557;28;20021;-72
2023/01/21 01:16:04;;;;;;;33.13;15.63;;;2.10;99.90;;;;;;5028551;28;20537;-71
2023/01/21 01:18:32;;;;;;;33.53;15.38;;;2.10;99.90;;;;;;5030086;28;20090;-74
2023/01/21 01:20:59;;;;;;;33.40;15.73;;;2.20;99.90;;;;;;5026787;28;20026;-74
2023/01/21 01:23:26;;;;;;;35.90;16.02;;;2.20;99.90;;;;;;5024763;28;20021;-73
2023/01/21 01:25:56;;;;;;;38.05;16.73;;;2.30;99.90;;;;;;5026548;28;20029;-73
2023/01/21 01:28:22;;;;;;;32.88;16.00;;;2.30;99.90;;;;;;5027991;28;20112;-71
2023/01/21 01:30:47;;;;;;;31.27;16.60;;;2.30;99.90;;;;;;5025495;28;20018;-73
2023/01/21 01:33:13;;;;;;;34.72;15.48;;;2.30;99.90;;;;;;5043307;28;20076;-72
2023/01/21 01:35:40;;;;;;;32.25;15.35;;;2.40;99.90;;;;;;5027066;28;20556;-73
2023/01/21 01:38:08;;;;;;;33.60;14.98;;;2.40;99.90;;;;;;5029182;28;20022;-72
2023/01/21 01:40:34;;;;;;;30.63;15.25;;;2.40;99.90;;;;;;5026615;28;20025;-73
2023/01/21 01:43:00;;;;;;;36.38;15.80;;;2.40;99.90;;;;;;5025244;28;20037;-72
2023/01/21 01:45:26;;;;;;;33.10;16.02;;;2.40;99.90;;;;;;5028178;28;20120;-72
2023/01/21 01:47:58;;;;;;;29.88;13.77;;;2.40;99.90;;;;;;5043644;28;20017;-71
2023/01/21 01:50:33;;;;;;;32.10;16.35;;;2.50;99.90;;;;;;5027545;28;20497;-72
2023/01/21 01:53:00;;;;;;;30.58;14.38;;;2.50;99.90;;;;;;5060834;28;20068;-73
2023/01/21 01:55:33;;;;;;;31.20;15.00;;;2.50;99.90;;;;;;5028721;28;20644;-73
2023/01/21 01:58:00;;;;;;;29.65;14.13;;;2.50;99.90;;;;;;5060668;28;20037;-72
2023/01/21 02:00:26;;;;;;;32.13;15.40;;;2.50;99.90;;;;;;5028144;28;20121;-73
2023/01/21 02:05:40;;;;;;;31.60;14.68;;;2.50;99.90;;;;;;5028725;28;20029;-72
2023/01/21 02:08:06;;;;;;;30.50;14.77;;;2.50;99.90;;;;;;5027706;28;20037;-72
2023/01/21 02:10:33;;;;;;;33.15;15.77;;;2.50;99.90;;;;;;5025348;28;20579;-71
2023/01/21 02:12:59;;;;;;;30.92;15.90;;;2.50;99.90;;;;;;5027523;28;20120;-72
2023/01/21 02:15:49;;;;;;;30.17;16.50;;;2.50;99.90;;;;;;5025578;28;20045;-71
2023/01/21 02:18:35;;;;;;;36.00;15.65;;;2.50;99.90;;;;;;5030136;28;20045;-71
2023/01/21 02:21:30;;;;;;;30.48;15.27;;;2.50;99.90;;;;;;5028754;28;20029;-72
2023/01/21 02:24:30;;;;;;;32.22;15.50;;;2.50;99.90;;;;;;5040644;28;20394;-71
2023/01/21 02:27:33;;;;;;;31.63;14.88;;;2.50;99.90;;;;;;5026381;28;20446;-72
2023/01/21 02:30:17;;;;;;;28.73;14.15;;;2.50;99.90;;;;;;5024760;28;20104;-74
2023/01/21 02:33:24;;;;;;;29.08;14.88;;;2.50;99.90;;;;;;5026903;28;20029;-72
2023/01/21 02:36:15;;;;;;;28.08;14.68;;;2.50;99.90;;;;;;5017831;28;20056;-72
2023/01/21 02:38:48;;;;;;;;;;;2.50;99.90;;;;;;5042940;28;20030;-72
2023/01/21 02:41:35;;;;;;;30.50;14.68;;;2.50;99.90;;;;;;5025922;28;20000;-73
2023/01/21 02:44:35;;;;;;;31.88;15.63;;;2.50;99.90;;;;;;5025893;28;20260;-70
2023/01/21 02:47:28;;;;;;;30.90;14.65;;;2.50;99.90;;;;;;5043169;28;20029;-70
2023/01/21 02:49:59;;;;;;;31.05;14.40;;;2.40;99.90;;;;;;5022580;28;20037;-72
2023/01/21 02:52:26;;;;;;;30.83;15.07;;;2.40;99.90;;;;;;5025526;28;20029;-72
2023/01/21 02:54:59;;;;;;;28.40;14.95;;;2.40;99.90;;;;;;5025317;28;20029;-71
2023/01/21 02:57:36;;;;;;;28.77;14.52;;;2.40;99.90;;;;;;5026959;28;20033;-72
2023/01/21 03:00:24;;;;;;;33.78;15.57;;;2.50;99.90;;;;;;5025952;28;20037;-72
2023/01/21 03:03:11;;;;;;;29.33;15.00;;;2.50;99.90;;;;;;5040393;28;20056;-73
2023/01/21 03:06:02;;;;;;;32.30;15.48;;;2.50;99.90;;;;;;5041975;28;20079;-74
2023/01/21 03:08:31;;;;;;;;;;;2.50;99.90;;;;;;5026624;28;20511;-70
2023/01/21 03:11:08;;;;;;;30.58;14.18;;;2.50;99.90;;;;;;5042591;28;19998;-72
2023/01/21 03:19:16;;;;;;;29.88;14.73;;;2.50;99.90;;;;;;5045932;28;20332;-73
2023/01/21 03:21:42;;;;;;;34.08;16.23;;;2.50;99.90;;;;;;5056574;28;20029;-72
2023/01/21 03:24:11;;;;;;;35.72;16.88;;;2.50;99.90;;;;;;5024578;28;20033;-72
2023/01/21 03:26:43;;;;;;;33.38;16.13;;;2.50;99.90;;;;;;5026913;28;20036;-71
2023/01/21 03:29:20;;;;;;;36.15;17.05;;;2.60;99.90;;;;;;5027385;28;20113;-73
2023/01/21 03:31:51;;;;;;;32.38;15.90;;;2.50;99.90;;;;;;5026932;28;20033;-71
2023/01/21 03:34:18;;;;;;;31.80;16.50;;;2.60;99.90;;;;;;5022680;28;20033;-72
2023/01/21 03:36:51;;;;;;;32.42;15.82;;;2.60;99.90;;;;;;5041837;28;20434;-72
2023/01/21 03:39:59;;;;;;;30.52;15.63;;;2.60;99.90;;;;;;5025296;28;20033;-72
2023/01/21 03:42:26;;;;;;;38.15;17.67;;;2.60;99.90;;;;;;4982357;28;20049;-72
2023/01/21 03:44:52;;;;;;;37.00;18.42;;;2.60;99.90;;;;;;5026607;28;20017;-73
2023/01/21 03:47:30;;;;;;;39.53;17.73;;;2.60;99.90;;;;;;5025792;28;20033;-72
2023/01/21 03:50:20;;;;;;;34.00;16.83;;;2.60;99.90;;;;;;5027424;28;20038;-72
2023/01/21 03:52:45;;;;;;;37.72;17.75;;;2.60;99.90;;;;;;5030219;28;20030;-72
2023/01/21 03:55:12;;;;;;;36.25;17.35;;;2.60;99.90;;;;;;5030106;28;20025;-71
2023/01/21 03:57:38;;;;;;;35.08;17.77;;;2.60;99.90;;;;;;5060236;28;20438;-72
2023/01/21 04:00:06;;;;;;;35.25;17.08;;;2.50;99.90;;;;;;5031147;28;20124;-72
2023/01/21 04:02:31;;;;;;;35.83;17.40;;;2.50;99.90;;;;;;5029249;28;20029;-73
2023/01/21 04:04:57;;;;;;;38.08;18.25;;;2.50;99.90;;;;;;5027923;28;20048;-71
2023/01/21 04:07:23;;;;;;;35.35;16.65;;;2.50;99.90;;;;;;5028456;28;20037;-72
2023/01/21 04:09:49;;;;;;;38.08;18.33;;;2.60;99.90;;;;;;5030389;28;20030;-72
2023/01/21 04:12:15;;;;;;;39.03;18.65;;;2.50;99.90;;;;;;5043788;28;20033;-72
2023/01/21 04:14:42;;;;;;;44.00;19.83;;;2.50;99.90;;;;;;5028698;28;20022;-73
2023/01/21 04:17:08;;;;;;;38.30;18.88;;;2.50;99.90;;;;;;5030133;28;20033;-72
2023/01/21 04:19:34;;;;;;;41.03;19.02;;;2.40;99.90;;;;;;5045577;28;20160;-72
2023/01/21 04:22:00;;;;;;;40.42;18.50;;;2.50;99.90;;;;;;5027814;28;20037;-72
2023/01/21 04:24:26;;;;;;;40.10;18.08;;;2.50;99.90;;;;;;5063952;28;20485;-72
2023/01/21 04:26:52;;;;;;;36.22;17.75;;;2.50;99.90;;;;;;5028703;28;20033;-73
2023/01/21 04:29:19;;;;;;;43.83;19.50;;;2.50;99.90;;;;;;5042948;28;20504;-75
2023/01/21 04:31:45;;;;;;;40.38;19.80;;;2.50;99.90;;;;;;5044477;28;20041;-73
2023/01/21 04:34:10;;;;;;;38.15;18.92;;;2.50;99.90;;;;;;5027680;28;20208;-72
2023/01/21 04:36:36;;;;;;;46.08;20.90;;;2.50;99.90;;;;;;5028447;28;20063;-72
2023/01/21 04:39:02;;;;;;;47.55;20.65;;;2.50;99.90;;;;;;5045021;28;20033;-72
2023/01/21 04:41:28;;;;;;;37.65;18.42;;;2.50;99.90;;;;;;5028540;28;20556;-71
2023/01/21 04:43:53;;;;;;;40.58;19.35;;;2.50;99.90;;;;;;5026845;28;20036;-71
2023/01/21 04:46:19;;;;;;;45.88;21.15;;;2.60;99.90;;;;;;5030110;28;20037;-70
2023/01/21 04:48:45;;;;;;;42.38;18.33;;;2.50;99.90;;;;;;5042533;28;20032;-72
2023/01/21 04:51:10;;;;;;;48.97;22.17;;;2.50;99.90;;;;;;5045033;28;20509;-71
2023/01/21 04:53:36;;;;;;;50.05;20.90;;;2.50;99.90;;;;;;5030158;28;20452;-72
2023/01/21 04:56:02;;;;;;;43.55;20.50;;;2.40;99.90;;;;;;5029152;28;20025;-72
2023/01/21 04:58:28;;;;;;;48.38;21.08;;;2.40;99.90;;;;;;5029872;28;20025;-72
2023/01/21 05:00:54;;;;;;;49.33;21.75;;;2.40;99.90;;;;;;5026391;28;20489;-71
2023/01/21 05:03:20;;;;;;;53.53;22.40;;;2.40;99.90;;;;;;5024295;28;20034;-72
2023/01/21 05:05:47;;;;;;;49.92;21.15;;;2.40;99.90;;;;;;5023745;28;20889;-72
2023/01/21 05:08:14;;;;;;;48.20;21.70;;;2.40;99.90;;;;;;5028353;28;20036;-72
2023/01/21 05:10:40;;;;;;;44.40;21.20;;;2.50;99.90;;;;;;5029831;28;20029;-72
2023/01/21 05:13:05;;;;;;;48.95;22.13;;;2.40;99.90;;;;;;5027859;28;20440;-72
2023/01/21 05:15:31;;;;;;;47.90;21.67;;;2.50;99.90;;;;;;5025816;28;20029;-72
2023/01/21 05:17:57;;;;;;;51.65;22.30;;;2.50;99.90;;;;;;5028009;28;20017;-74
2023/01/21 05:20:23;;;;;;;42.35;20.13;;;2.40;99.90;;;;;;5030586;28;20025;-71
2023/01/21 05:22:49;;;;;;;47.90;21.02;;;2.40;99.90;;;;;;5030791;28;20173;-72
2023/01/21 05:25:15;;;;;;;47.05;20.48;;;2.50;99.90;;;;;;5029357;28;20119;-72
2023/01/21 05:27:41;;;;;;;46.65;20.80;;;2.40;99.90;;;;;;5043462;28;20025;-70
2023/01/21 05:30:08;;;;;;;49.42;21.23;;;2.40;99.90;;;;;;5024314;28;20040;-72
2023/01/21 05:32:35;;;;;;;49.25;21.80;;;2.40;99.90;;;;;;5038248;28;21666;-71
2023/01/21 05:35:02;;;;;;;49.13;20.83;;;2.40;99.90;;;;;;5042226;28;20033;-71
2023/01/21 05:37:28;;;;;;;48.25;19.52;;;2.40;99.90;;;;;;5028212;28;20037;-71
2023/01/21 05:39:53;;;;;;;48.33;19.95;;;2.40;99.90;;;;;;5026074;28;20463;-72
2023/01/21 05:42:19;;;;;;;49.15;21.02;;;2.50;99.90;;;;;;5042018;28;20038;-72
2023/01/21 05:44:45;;;;;;;42.58;19.85;;;2.50;99.90;;;;;;5026092;28;20136;-72
2023/01/21 05:47:10;;;;;;;41.70;18.23;;;2.50;99.90;;;;;;5025525;28;20051;-71
2023/01/21 05:49:36;;;;;;;38.45;16.77;;;2.40;99.90;;;;;;5025108;28;20401;-72
2023/01/21 05:52:02;;;;;;;37.45;16.67;;;2.50;99.90;;;;;;5029202;28;20413;-71
2023/01/21 05:54:28;;;;;;;38.03;16.48;;;2.40;99.90;;;;;;5027627;28;20034;-73
2023/01/21 05:56:53;;;;;;;40.80;17.80;;;2.40;99.90;;;;;;5025187;28;20140;-70
2023/01/21 05:59:19;;;;;;;38.20;16.98;;;2.40;99.90;;;;;;5008985;28;20029;-71
2023/01/21 06:01:45;;;;;;;40.40;17.13;;;2.40;99.90;;;;;;5040476;28;20056;-71
2023/01/21 06:04:10;;;;;;;41.00;17.40;;;2.40;99.90;;;;;;5043712;28;20335;-72
2023/01/21 06:06:36;;;;;;;39.90;15.70;;;2.40;99.90;;;;;;5040376;28;20546;-72
2023/01/21 06:09:02;;;;;;;36.95;17.20;;;2.40;99.90;;;;;;5029120;28;20663;-72
2023/01/21 06:11:28;;;;;;;33.45;15.00;;;2.50;99.90;;;;;;5024269;28;20496;-72
2023/01/21 06:13:53;;;;;;;36.60;16.40;;;2.40;99.90;;;;;;5042498;28;20029;-72
2023/01/21 06:16:19;;;;;;;34.70;16.00;;;2.30;99.90;;;;;;5027153;28;20151;-70
2023/01/21 06:18:44;;;;;;;39.33;17.10;;;2.30;99.90;;;;;;5042549;28;20025;-71
2023/01/21 06:21:10;;;;;;;40.20;17.65;;;2.30;99.90;;;;;;5024559;28;20026;-72
2023/01/21 06:23:36;;;;;;;37.75;17.73;;;2.30;99.90;;;;;;5041360;28;20049;-71
2023/01/21 06:26:02;;;;;;;38.15;17.40;;;2.30;99.90;;;;;;5010135;28;20370;-72
2023/01/21 06:28:29;;;;;;;38.05;16.85;;;2.30;99.90;;;;;;5024078;28;20291;-72
2023/01/21 06:30:55;;;;;;;36.03;16.52;;;2.30;99.90;;;;;;5023310;28;20035;-72
2023/01/21 06:33:21;;;;;;;39.13;17.83;;;2.30;99.90;;;;;;5024984;28;20036;-72
2023/01/21 06:35:46;;;;;;;42.15;17.25;;;2.30;99.90;;;;;;5025594;28;20477;-71
2023/01/21 06:38:12;;;;;;;41.33;18.25;;;2.30;99.90;;;;;;5024806;28;20069;-72
2023/01/21 06:40:38;;;;;;;43.70;18.30;;;2.30;99.90;;;;;;5025299;28;20219;-71
2023/01/21 06:43:04;;;;;;;42.47;19.27;;;2.30;99.90;;;;;;5026201;28;20030;-72
2023/01/21 06:45:30;;;;;;;40.95;18.75;;;2.30;99.90;;;;;;5024780;28;20401;-73
2023/01/21 06:47:55;;;;;;;39.88;17.35;;;2.20;99.90;;;;;;5023326;28;20156;-73
2023/01/21 06:50:21;;;;;;;38.10;17.80;;;2.30;99.90;;;;;;5026046;28;20048;-73
2023/01/21 06:52:47;;;;;;;41.83;17.92;;;2.30;99.90;;;;;;5058766;28;20272;-71
2023/01/21 06:55:15;;;;;;;39.35;16.60;;;2.20;99.90;;;;;;5024405;28;20661;-73
2023/01/21 06:57:42;;;;;;;40.78;18.02;;;2.20;99.90;;;;;;5041460;28;20033;-73
2023/01/21 07:00:08;;;;;;;33.78;15.68;;;2.30;99.90;;;;;;5023686;28;20033;-72
2023/01/21 07:02:34;;;;;;;37.83;17.25;;;2.30;99.90;;;;;;5027548;28;20075;-72
2023/01/21 07:05:00;;;;;;;38.65;17.25;;;2.20;99.90;;;;;;5035683;28;20041;-73
2023/01/21 07:07:26;;;;;;;39.58;16.92;;;2.10;99.90;;;;;;5030247;28;20405;-73
2023/01/21 07:09:52;;;;;;;41.20;19.50;;;2.20;99.90;;;;;;5026686;28;20513;-72
2023/01/21 07:12:17;;;;;;;40.00;19.15;;;2.20;99.90;;;;;;5025911;28;20026;-72
2023/01/21 07:14:43;;;;;;;39.72;18.77;;;2.20;99.90;;;;;;5026171;28;20022;-73
2023/01/21 07:17:08;;;;;;;42.33;18.70;;;2.20;99.90;;;;;;5023409;28;20500;-73
2023/01/21 07:19:34;;;;;;;40.95;18.33;;;2.30;99.90;;;;;;5027241;28;20448;-73
2023/01/21 07:22:00;;;;;;;41.72;18.85;;;2.30;99.90;;;;;;5041561;28;20112;-73
2023/01/21 07:24:25;;;;;;;41.03;18.42;;;2.30;99.90;;;;;;5030299;28;20063;-73
2023/01/21 07:26:51;;;;;;;44.05;19.23;;;2.30;99.90;;;;;;5026665;28;20028;-73
2023/01/21 07:29:17;;;;;;;47.15;19.75;;;2.30;99.90;;;;;;5031437;28;20378;-71
2023/01/21 07:31:43;;;;;;;49.65;20.55;;;2.30;99.90;;;;;;5023732;28;20037;-73
2023/01/21 07:34:09;;;;;;;44.95;20.58;;;2.30;99.90;;;;;;5027358;28;20029;-72
2023/01/21 07:36:35;;;;;;;45.55;20.02;;;2.30;99.90;;;;;;5030523;28;20479;-71
2023/01/21 07:39:00;;;;;;;45.50;19.98;;;2.30;99.90;;;;;;5028077;28;20517;-74
2023/01/21 07:41:26;;;;;;;45.65;20.17;;;2.30;99.90;;;;;;5021762;28;20151;-73
2023/01/21 07:43:52;;;;;;;47.78;19.83;;;2.30;99.90;;;;;;5024456;28;20069;-71
2023/01/21 07:46:19;;;;;;;42.15;19.95;;;2.20;99.90;;;;;;5029097;28;20027;-72
2023/01/21 07:48:49;;;;;;;43.30;19.10;;;2.20;99.90;;;;;;5059550;28;20094;-75
2023/01/21 07:51:19;;;;;;;49.20;19.85;;;2.20;99.90;;;;;;5028967;28;20040;-72
2023/01/21 07:53:45;;;;;;;50.03;20.65;;;2.20;99.90;;;;;;5035864;28;20030;-71
2023/01/21 07:56:11;;;;;;;57.10;21.90;;;2.20;99.90;;;;;;5027766;28;20032;-72
2023/01/21 07:58:37;;;;;;;49.30;20.08;;;2.20;99.90;;;;;;5029048;28;20029;-72
2023/01/21 08:01:06;;;;;;;48.42;21.65;;;2.20;99.90;;;;;;5008923;28;20448;-71
2023/01/21 08:03:33;;;;;;;48.22;20.73;;;2.10;99.90;;;;;;5011667;28;20022;-74
2023/01/21 08:05:59;;;;;;;53.50;22.02;;;2.10;99.90;;;;;;5029218;28;20508;-71
2023/01/21 08:08:25;;;;;;;49.50;21.58;;;2.10;99.90;;;;;;5031643;28;20037;-72
2023/01/21 08:10:52;;;;;;;45.17;19.98;;;2.20;99.90;;;;;;5028225;28;20025;-71
2023/01/21 08:13:18;;;;;;;39.78;18.67;;;2.20;99.90;;;;;;5030946;28;20090;-72
2023/01/21 08:15:48;;;;;;;40.75;19.20;;;2.30;99.90;;;;;;5025665;28;20067;-72
2023/01/21 08:18:13;;;;;;;47.42;20.90;;;2.30;99.90;;;;;;5029764;28;20047;-72
2023/01/21 08:20:39;;;;;;;44.80;20.20;;;2.30;99.90;;;;;;5044322;28;20037;-71
2023/01/21 08:23:04;;;;;;;46.30;20.08;;;2.30;99.90;;;;;;5029599;28;20037;-71
2023/01/21 08:25:30;;;;;;;50.17;20.95;;;2.30;99.90;;;;;;5024570;28;20037;-72
2023/01/21 08:27:58;;;;;;;45.45;19.77;;;2.30;99.90;;;;;;5029008;28;20063;-71
2023/01/21 08:30:24;;;;;;;46.25;19.38;;;2.30;99.90;;;;;;5027076;28;20041;-73
2023/01/21 08:32:50;;;;;;;43.78;19.45;;;2.30;99.90;;;;;;5028518;28;20025;-72
2023/01/21 08:35:16;;;;;;;44.38;18.98;;;2.30;99.90;;;;;;5042841;28;20029;-72
2023/01/21 08:37:42;;;;;;;44.03;19.40;;;2.20;99.90;;;;;;5059770;28;20032;-72
2023/01/21 08:40:08;;;;;;;44.78;19.50;;;2.30;99.90;;;;;;5041546;28;20041;-72
2023/01/21 08:42:34;;;;;;;47.17;19.27;;;2.40;99.90;;;;;;5029377;28;20025;-72
2023/01/21 08:45:00;;;;;;;41.90;18.65;;;2.30;99.90;;;;;;5030123;28;20037;-72
2023/01/21 08:47:25;;;;;;;46.45;19.90;;;2.30;99.90;;;;;;5027950;28;20033;-72
2023/01/21 08:49:51;;;;;;;45.15;20.23;;;2.40;99.90;;;;;;5058771;28;20040;-72
2023/01/21 08:52:17;;;;;;;45.72;20.70;;;2.40;99.90;;;;;;5030500;28;20028;-72
2023/01/21 08:54:43;;;;;;;39.80;19.10;;;2.50;99.90;;;;;;5027360;28;20079;-72
2023/01/21 08:57:09;;;;;;;42.20;19.13;;;2.50;99.90;;;;;;5025848;28;20033;-74
2023/01/21 08:59:34;;;;;;;46.15;18.95;;;2.60;99.90;;;;;;5025267;28;20256;-72
2023/01/21 09:02:00;;;;;;;43.25;18.95;;;2.60;99.90;;;;;;5026583;28;20024;-71
2023/01/21 09:04:26;;;;;;;45.53;20.02;;;2.50;99.90;;;;;;5024690;28;20033;-74
2023/01/21 09:06:52;;;;;;;51.47;22.52;;;2.50;99.90;;;;;;5023743;28;20064;-71
2023/01/21 09:09:18;;;;;;;48.75;20.52;;;2.50;99.90;;;;;;5019996;28;20396;-71
2023/01/21 09:11:43;;;;;;;55.20;22.35;;;2.60;99.90;;;;;;5023497;28;20041;-71
2023/01/21 09:14:09;;;;;;;46.05;18.70;;;2.50;99.90;;;;;;5022388;28;20038;-71
2023/01/21 09:16:35;;;;;;;46.67;21.02;;;2.50;99.90;;;;;;5024540;28;20064;-72
2023/01/21 09:19:01;;;;;;;55.55;21.85;;;2.50;99.90;;;;;;5022863;28;20156;-75
2023/01/21 09:21:28;;;;;;;48.58;19.67;;;2.60;99.90;;;;;;5025053;28;20090;-72
2023/01/21 09:23:55;;;;;;;49.08;20.38;;;2.60;99.90;;;;;;5008445;28;20497;-73
2023/01/21 09:26:23;;;;;;;47.35;20.85;;;2.50;99.90;;;;;;5054963;28;20033;-75
2023/01/21 09:29:00;;;;;;;51.30;20.38;;;2.50;99.90;;;;;;5027074;28;20056;-72
2023/01/21 09:31:28;;;;;;;57.30;20.85;;;2.40;99.90;;;;;;5028030;28;20048;-73
2023/01/21 09:33:57;;;;;;;50.90;19.50;;;3.70;99.90;;;;;;5027535;28;20036;-74
2023/01/21 09:36:26;;;;;;;44.58;18.90;;;3.30;99.90;;;;;;5027716;28;20033;-78
2023/01/21 09:38:51;;;;;;;44.72;18.60;;;3.00;99.90;;;;;;5027784;28;20029;-76
2023/01/21 09:41:17;;;;;;;47.13;20.00;;;3.00;99.90;;;;;;5025888;28;20120;-73
2023/01/21 09:44:01;;;;;;;49.42;18.88;;;2.80;99.90;;;;;;5025490;28;20181;-70
2023/01/21 09:46:33;;;;;;;48.70;18.70;;;2.60;99.90;;;;;;5025006;28;20398;-75
2023/01/21 09:49:04;;;;;;;48.88;19.45;;;2.60;99.90;;;;;;5022603;28;20041;-72
2023/01/21 09:51:57;;;;;;;44.90;18.52;;;2.50;99.90;;;;;;5025439;28;20033;-79
2023/01/21 09:54:34;;;;;;;40.97;17.33;;;2.60;99.90;;;;;;5014120;28;20033;-78
2023/01/21 09:57:19;;;;;;;42.33;18.00;;;2.60;99.90;;;;;;5012445;28;20037;-71
2023/01/21 09:59:57;;;;;;;43.00;18.00;;;2.50;99.90;;;;;;5015303;28;20416;-70
2023/01/21 10:02:52;;;;;;;45.08;19.05;;;2.50;99.90;;;;;;5041152;28;20021;-72
2023/01/21 10:05:18;;;;;;;44.40;17.65;;;2.50;99.90;;;;;;5019599;28;20036;-75
2023/01/21 10:07:53;;;;;;;44.17;17.38;;;2.40;99.90;;;;;;5008203;28;20029;-73
2023/01/21 10:10:44;;;;;;;40.30;17.10;;;2.50;99.90;;;;;;5007806;28;20673;-74
2023/01/21 10:13:41;;;;;;;43.33;18.23;;;2.50;99.90;;;;;;5027544;28;21615;-72
2023/01/21 10:16:18;;;;;;;44.05;17.05;;;2.60;99.90;;;;;;5043332;28;20033;-76
2023/01/21 10:18:49;;;;;;;40.15;17.17;;;2.60;99.90;;;;;;5029969;28;20496;-72
2023/01/21 10:21:29;;;;;;;37.63;16.63;;;2.70;99.90;;;;;;5022727;28;20171;-73
2023/01/21 10:24:25;;;;;;;37.67;16.35;;;2.70;99.90;;;;;;5036865;28;20350;-72
2023/01/21 10:26:52;;;;;;;35.40;15.10;;;2.70;99.90;;;;;;5031288;28;20040;-71
2023/01/21 10:29:22;;;;;;;38.67;15.52;;;2.80;99.90;;;;;;5029041;28;20033;-72
2023/01/21 10:31:58;;;;;;;33.92;16.23;;;2.80;99.90;;;;;;5023907;28;20029;-71
2023/01/21 10:34:28;;;;;;;36.38;15.63;;;2.90;99.90;;;;;;5026331;28;20511;-75
2023/01/21 10:37:12;;;;;;;36.30;14.63;;;2.90;99.90;;;;;;5022609;28;20021;-73
2023/01/21 10:40:04;;;;;;;36.97;15.30;;;3.00;99.90;;;;;;5020544;28;20036;-72
2023/01/21 10:42:58;;;;;;;37.10;15.77;;;3.00;99.90;;;;;;5024621;28;20021;-73
2023/01/21 10:45:52;;;;;;;36.55;15.38;;;3.00;99.90;;;;;;5024667;28;20045;-72
2023/01/21 10:49:13;;;;;;;31.73;14.68;;;3.00;99.90;;;;;;5027313;28;20570;-72
2023/01/21 10:51:56;;;;;;;37.35;15.90;;;3.10;99.90;;;;;;4996395;28;20088;-71
2023/01/21 10:54:50;;;;;;;32.55;14.43;;;3.00;99.90;;;;;;5019081;28;20041;-71
2023/01/21 10:57:19;;;;;;;36.03;15.40;;;3.10;99.90;;;;;;5050527;28;20033;-73
2023/01/21 10:59:46;;;;;;;30.48;14.05;;;3.10;99.90;;;;;;5039049;28;20040;-71
2023/01/21 11:02:29;;;;;;;36.10;14.40;;;3.10;99.90;;;;;;5040816;28;20030;-72
2023/01/21 11:05:00;;;;;;;36.97;16.40;;;3.20;99.90;;;;;;5022312;28;20117;-72
2023/01/21 11:07:28;;;;;;;;;;;3.30;99.90;;;;;;5022524;28;20394;-72
2023/01/21 11:09:54;;;;;;;32.10;14.35;;;3.30;99.90;;;;;;5054367;28;19917;-72
2023/01/21 11:12:21;;;;;;;30.65;14.43;;;3.40;99.90;;;;;;5038174;28;20056;-73
2023/01/21 11:14:56;;;;;;;34.92;15.40;;;3.40;99.90;;;;;;5022039;28;20080;-73
2023/01/21 11:17:37;;;;;;;35.28;15.52;;;3.40;99.90;;;;;;5026231;28;20018;-72
2023/01/21 11:20:41;;;;;;;29.27;13.90;;;3.40;99.90;;;;;;5021555;28;20060;-72
2023/01/21 11:23:26;;;;;;;28.00;14.48;;;3.40;99.90;;;;;;5020156;28;20117;-76
2023/01/21 11:26:00;;;;;;;32.33;14.00;;;3.60;99.90;;;;;;5021605;28;20063;-72
2023/01/21 11:28:29;;;;;;;29.58;13.60;;;3.60;99.90;;;;;;5023962;28;20026;-72
2023/01/21 11:31:10;;;;;;;28.80;13.55;;;3.70;99.90;;;;;;5017810;28;20103;-72
2023/01/21 11:33:36;;;;;;;27.75;13.25;;;3.60;99.90;;;;;;5023706;28;20119;-72
2023/01/21 11:36:13;;;;;;;29.55;13.10;;;3.60;99.90;;;;;;5025854;28;20076;-72
2023/01/21 11:38:41;;;;;;;29.55;12.95;;;3.60;99.90;;;;;;5024311;28;20401;-72
2023/01/21 11:41:13;;;;;;;26.65;12.15;;;3.60;99.90;;;;;;5024282;28;20386;-72
2023/01/21 11:43:50;;;;;;;28.33;14.23;;;3.70;99.90;;;;;;5025203;28;20106;-72
2023/01/21 11:46:20;;;;;;;30.10;13.00;;;3.70;99.90;;;;;;5024667;28;20069;-73
2023/01/21 11:48:46;;;;;;;25.20;12.23;;;3.70;99.90;;;;;;5027160;28;20144;-71
2023/01/21 11:51:12;;;;;;;24.90;11.82;;;3.70;99.90;;;;;;5025006;28;20057;-72
2023/01/21 11:53:39;;;;;;;24.23;11.95;;;3.80;99.90;;;;;;5025781;28;20116;-72
2023/01/21 11:56:06;;;;;;;21.90;10.65;;;3.80;99.90;;;;;;5042035;28;20133;-72
2023/01/21 11:58:34;;;;;;;21.50;10.40;;;3.70;99.90;;;;;;5026148;28;20026;-71
2023/01/21 12:01:04;;;;;;;26.25;12.27;;;3.70;99.90;;;;;;5026974;28;20033;-71
2023/01/21 12:03:39;;;;;;;26.05;13.25;;;3.80;99.90;;;;;;5025653;28;20438;-72
2023/01/21 12:06:06;;;;;;;23.45;11.50;;;3.90;99.90;;;;;;5025932;28;20109;-72
2023/01/21 12:08:35;;;;;;;23.90;11.60;;;3.90;99.90;;;;;;5032646;28;20041;-72
2023/01/21 12:11:03;;;;;;;22.23;11.43;;;3.90;99.90;;;;;;5032385;28;20044;-72
2023/01/21 12:13:50;;;;;;;22.67;10.82;;;3.90;99.90;;;;;;5028883;28;20029;-73
2023/01/21 12:16:39;;;;;;;24.73;11.02;;;3.90;99.90;;;;;;5030604;28;20551;-73
2023/01/21 12:19:17;;;;;;;22.42;11.45;;;3.90;99.90;;;;;;5045813;28;20029;-73
2023/01/21 12:22:01;;;;;;;23.33;11.63;;;4.00;99.90;;;;;;5027506;28;20033;-72
2023/01/21 12:24:51;;;;;;;24.58;11.60;;;3.90;99.90;;;;;;5029990;28;20030;-72
2023/01/21 12:27:30;;;;;;;23.40;11.65;;;3.90;99.90;;;;;;5029909;28;20030;-71
2023/01/21 12:30:06;;;;;;;24.45;11.80;;;3.90;99.90;;;;;;5029627;28;20052;-72
2023/01/21 12:32:44;;;;;;;25.17;11.45;;;3.90;99.90;;;;;;5042198;28;20022;-74
2023/01/21 12:35:18;;;;;;;21.60;10.93;;;3.90;99.90;;;;;;5046048;28;20428;-73
2023/01/21 12:37:53;;;;;;;23.98;11.77;;;3.90;99.90;;;;;;5062858;28;20028;-72
2023/01/21 12:40:45;;;;;;;22.80;11.57;;;3.80;99.90;;;;;;5027396;28;20037;-71
2023/01/21 12:43:24;;;;;;;20.77;11.35;;;3.70;99.90;;;;;;5027531;28;20037;-71
2023/01/21 12:45:55;;;;;;;25.15;12.43;;;3.80;99.90;;;;;;5030441;28;20359;-72
2023/01/21 12:48:25;;;;;;;24.48;12.57;;;3.80;99.90;;;;;;5044252;28;20460;-72
2023/01/21 12:50:59;;;;;;;23.83;12.18;;;3.90;99.90;;;;;;5045402;28;20077;-72
2023/01/21 12:53:54;;;;;;;23.98;12.15;;;3.90;99.90;;;;;;5026472;28;20125;-73
2023/01/21 12:56:38;;;;;;;26.70;12.68;;;3.80;99.90;;;;;;4996735;28;20033;-74
2023/01/21 12:59:06;;;;;;;26.85;13.20;;;3.80;99.90;;;;;;5027905;28;20025;-73
2023/01/21 13:01:52;;;;;;;24.90;13.27;;;3.90;99.90;;;;;;5044728;28;20083;-74
2023/01/21 13:04:35;;;;;;;23.85;12.52;;;4.00;99.90;;;;;;5027437;28;20038;-72